sensor_id;sensor_type;location;lat;lon;timestamp;P1;durP1;ratioP1;P2;durP2;ratioP2
49942;SDS011;36011;53.362;58.948;2023-11-19T00:02:14;1.73;;;1.30;;
49942;SDS011;36011;53.362;58.948;2023-11-19T00:05:19;1.48;;;1.10;;
49942;SDS011;36011;53.362;58.948;2023-11-19T00:08:28;2.20;;;1.42;;
49942;SDS011;36011;53.362;58.948;2023-11-19T00:11:31;2.50;;;1.40;;
49942;SDS011;36011;53.362;58.948;2023-11-19T00:14:43;1.75;;;1.58;;
49942;SDS011;36011;53.362;58.948;2023-11-19T00:17:45;2.00;;;1.40;;
49942;SDS011;36011;53.362;58.948;2023-11-19T00:20:48;1.60;;;0.98;;
49942;SDS011;36011;53.362;58.948;2023-11-19T00:23:54;3.05;;;1.50;;
49942;SDS011;36011;53.362;58.948;2023-11-19T00:26:58;2.65;;;1.70;;
49942;SDS011;36011;53.362;58.948;2023-11-19T00:30:06;2.45;;;1.30;;
49942;SDS011;36011;53.362;58.948;2023-11-19T00:33:14;1.73;;;1.60;;
49942;SDS011;36011;53.362;58.948;2023-11-19T00:36:18;3.03;;;1.50;;
49942;SDS011;36011;53.362;58.948;2023-11-19T00:42:27;1.55;;;1.40;;
49942;SDS011;36011;53.362;58.948;2023-11-19T00:45:37;2.50;;;1.55;;
49942;SDS011;36011;53.362;58.948;2023-11-19T00:48:41;2.88;;;1.67;;
49942;SDS011;36011;53.362;58.948;2023-11-19T00:51:45;1.25;;;1.05;;
49942;SDS011;36011;53.362;58.948;2023-11-19T00:54:47;2.72;;;1.70;;
49942;SDS011;36011;53.362;58.948;2023-11-19T00:57:51;2.60;;;1.83;;
49942;SDS011;36011;53.362;58.948;2023-11-19T01:00:53;3.58;;;1.65;;
49942;SDS011;36011;53.362;58.948;2023-11-19T01:03:54;2.30;;;1.50;;
49942;SDS011;36011;53.362;58.948;2023-11-19T01:06:59;2.10;;;1.63;;
49942;SDS011;36011;53.362;58.948;2023-11-19T01:10:05;3.78;;;2.15;;
49942;SDS011;36011;53.362;58.948;2023-11-19T01:13:10;2.20;;;1.50;;
49942;SDS011;36011;53.362;58.948;2023-11-19T01:16:11;3.85;;;1.95;;
49942;SDS011;36011;53.362;58.948;2023-11-19T01:19:15;2.45;;;2.20;;
49942;SDS011;36011;53.362;58.948;2023-11-19T01:22:21;3.22;;;2.35;;
49942;SDS011;36011;53.362;58.948;2023-11-19T01:25:24;2.92;;;1.50;;
49942;SDS011;36011;53.362;58.948;2023-11-19T01:28:28;3.65;;;2.22;;
49942;SDS011;36011;53.362;58.948;2023-11-19T01:31:32;3.90;;;2.00;;
49942;SDS011;36011;53.362;58.948;2023-11-19T01:34:34;1.52;;;1.42;;
49942;SDS011;36011;53.362;58.948;2023-11-19T01:37:37;3.13;;;2.10;;
49942;SDS011;36011;53.362;58.948;2023-11-19T01:40:38;6.10;;;3.20;;
49942;SDS011;36011;53.362;58.948;2023-11-19T01:43:40;1.80;;;1.70;;
49942;SDS011;36011;53.362;58.948;2023-11-19T01:46:46;3.00;;;2.15;;
49942;SDS011;36011;53.362;58.948;2023-11-19T01:49:53;2.97;;;2.50;;
49942;SDS011;36011;53.362;58.948;2023-11-19T01:52:56;3.40;;;2.00;;
49942;SDS011;36011;53.362;58.948;2023-11-19T01:56:00;2.50;;;1.85;;
49942;SDS011;36011;53.362;58.948;2023-11-19T01:59:03;2.92;;;2.20;;
49942;SDS011;36011;53.362;58.948;2023-11-19T02:02:05;2.78;;;1.50;;
49942;SDS011;36011;53.362;58.948;2023-11-19T02:05:12;4.28;;;1.80;;
49942;SDS011;36011;53.362;58.948;2023-11-19T02:08:16;2.08;;;1.60;;
49942;SDS011;36011;53.362;58.948;2023-11-19T02:11:21;1.45;;;1.35;;
49942;SDS011;36011;53.362;58.948;2023-11-19T02:14:31;2.40;;;1.88;;
49942;SDS011;36011;53.362;58.948;2023-11-19T02:17:33;3.42;;;1.70;;
49942;SDS011;36011;53.362;58.948;2023-11-19T02:20:38;2.97;;;1.73;;
49942;SDS011;36011;53.362;58.948;2023-11-19T02:23:39;3.05;;;1.85;;
49942;SDS011;36011;53.362;58.948;2023-11-19T02:30:00;3.17;;;1.95;;
49942;SDS011;36011;53.362;58.948;2023-11-19T02:33:02;2.13;;;1.88;;
49942;SDS011;36011;53.362;58.948;2023-11-19T02:36:07;2.75;;;1.95;;
49942;SDS011;36011;53.362;58.948;2023-11-19T02:39:09;2.97;;;1.93;;
49942;SDS011;36011;53.362;58.948;2023-11-19T02:42:14;2.13;;;1.65;;
49942;SDS011;36011;53.362;58.948;2023-11-19T02:45:18;1.70;;;1.60;;
49942;SDS011;36011;53.362;58.948;2023-11-19T02:48:27;0.85;;;0.85;;
49942;SDS011;36011;53.362;58.948;2023-11-19T02:51:31;2.20;;;1.25;;
49942;SDS011;36011;53.362;58.948;2023-11-19T02:54:38;2.33;;;1.77;;
49942;SDS011;36011;53.362;58.948;2023-11-19T02:57:42;2.40;;;2.20;;
49942;SDS011;36011;53.362;58.948;2023-11-19T03:00:50;2.17;;;1.75;;
49942;SDS011;36011;53.362;58.948;2023-11-19T03:04:12;3.50;;;2.22;;
49942;SDS011;36011;53.362;58.948;2023-11-19T03:07:17;3.95;;;2.08;;
49942;SDS011;36011;53.362;58.948;2023-11-19T03:10:26;4.10;;;2.30;;
49942;SDS011;36011;53.362;58.948;2023-11-19T03:13:29;3.03;;;1.80;;
49942;SDS011;36011;53.362;58.948;2023-11-19T03:16:36;2.65;;;1.70;;
49942;SDS011;36011;53.362;58.948;2023-11-19T03:19:40;1.52;;;1.42;;
49942;SDS011;36011;53.362;58.948;2023-11-19T03:22:44;1.50;;;1.40;;
49942;SDS011;36011;53.362;58.948;2023-11-19T03:25:51;1.67;;;1.58;;
49942;SDS011;36011;53.362;58.948;2023-11-19T03:28:56;2.03;;;1.50;;
49942;SDS011;36011;53.362;58.948;2023-11-19T03:32:01;2.80;;;1.75;;
49942;SDS011;36011;53.362;58.948;2023-11-19T03:35:05;2.10;;;1.90;;
49942;SDS011;36011;53.362;58.948;2023-11-19T03:38:10;2.72;;;2.00;;
49942;SDS011;36011;53.362;58.948;2023-11-19T03:41:14;6.82;;;3.10;;
49942;SDS011;36011;53.362;58.948;2023-11-19T03:44:20;1.77;;;1.40;;
49942;SDS011;36011;53.362;58.948;2023-11-19T03:47:23;1.80;;;1.60;;
49942;SDS011;36011;53.362;58.948;2023-11-19T03:50:30;2.35;;;1.90;;
49942;SDS011;36011;53.362;58.948;2023-11-19T03:53:34;4.50;;;1.95;;
49942;SDS011;36011;53.362;58.948;2023-11-19T03:56:36;2.35;;;1.50;;
49942;SDS011;36011;53.362;58.948;2023-11-19T03:59:41;1.35;;;1.27;;
49942;SDS011;36011;53.362;58.948;2023-11-19T04:02:44;2.65;;;1.65;;
49942;SDS011;36011;53.362;58.948;2023-11-19T04:05:48;1.40;;;1.30;;
49942;SDS011;36011;53.362;58.948;2023-11-19T04:08:52;1.50;;;1.40;;
49942;SDS011;36011;53.362;58.948;2023-11-19T04:11:54;2.38;;;1.40;;
49942;SDS011;36011;53.362;58.948;2023-11-19T04:14:55;0.95;;;0.95;;
49942;SDS011;36011;53.362;58.948;2023-11-19T04:17:57;1.23;;;1.13;;
49942;SDS011;36011;53.362;58.948;2023-11-19T04:20:58;1.90;;;1.70;;
49942;SDS011;36011;53.362;58.948;2023-11-19T04:24:00;0.77;;;0.77;;
49942;SDS011;36011;53.362;58.948;2023-11-19T04:27:02;3.28;;;0.95;;
49942;SDS011;36011;53.362;58.948;2023-11-19T04:30:07;0.85;;;0.85;;
49942;SDS011;36011;53.362;58.948;2023-11-19T04:33:18;1.50;;;1.40;;
49942;SDS011;36011;53.362;58.948;2023-11-19T04:36:20;3.15;;;1.48;;
49942;SDS011;36011;53.362;58.948;2023-11-19T04:39:25;3.45;;;1.35;;
49942;SDS011;36011;53.362;58.948;2023-11-19T04:42:28;1.60;;;1.50;;
49942;SDS011;36011;53.362;58.948;2023-11-19T04:45:30;3.63;;;2.20;;
49942;SDS011;36011;53.362;58.948;2023-11-19T04:48:35;2.75;;;1.60;;
49942;SDS011;36011;53.362;58.948;2023-11-19T04:51:38;0.93;;;0.93;;
49942;SDS011;36011;53.362;58.948;2023-11-19T04:54:44;1.77;;;1.27;;
49942;SDS011;36011;53.362;58.948;2023-11-19T04:57:53;1.60;;;1.50;;
49942;SDS011;36011;53.362;58.948;2023-11-19T05:00:56;4.35;;;2.08;;
49942;SDS011;36011;53.362;58.948;2023-11-19T05:03:58;2.22;;;2.03;;
49942;SDS011;36011;53.362;58.948;2023-11-19T05:07:02;3.25;;;1.90;;
49942;SDS011;36011;53.362;58.948;2023-11-19T05:10:07;1.55;;;1.40;;
49942;SDS011;36011;53.362;58.948;2023-11-19T05:13:12;2.28;;;1.80;;
49942;SDS011;36011;53.362;58.948;2023-11-19T05:16:16;1.77;;;1.45;;
49942;SDS011;36011;53.362;58.948;2023-11-19T05:19:25;3.20;;;1.88;;
49942;SDS011;36011;53.362;58.948;2023-11-19T05:22:26;3.15;;;2.10;;
49942;SDS011;36011;53.362;58.948;2023-11-19T05:25:28;17.52;;;3.22;;
49942;SDS011;36011;53.362;58.948;2023-11-19T05:28:30;5.18;;;2.85;;
49942;SDS011;36011;53.362;58.948;2023-11-19T05:31:36;6.80;;;2.38;;
49942;SDS011;36011;53.362;58.948;2023-11-19T05:34:41;2.90;;;2.33;;
49942;SDS011;36011;53.362;58.948;2023-11-19T05:37:47;2.13;;;1.70;;
49942;SDS011;36011;53.362;58.948;2023-11-19T05:40:53;1.95;;;1.50;;
49942;SDS011;36011;53.362;58.948;2023-11-19T05:43:58;1.55;;;1.30;;
49942;SDS011;36011;53.362;58.948;2023-11-19T05:47:03;6.70;;;2.15;;
49942;SDS011;36011;53.362;58.948;2023-11-19T05:50:05;2.10;;;1.58;;
49942;SDS011;36011;53.362;58.948;2023-11-19T05:53:10;2.83;;;1.45;;
49942;SDS011;36011;53.362;58.948;2023-11-19T05:56:14;2.40;;;1.60;;
49942;SDS011;36011;53.362;58.948;2023-11-19T05:59:18;2.03;;;1.80;;
49942;SDS011;36011;53.362;58.948;2023-11-19T06:02:22;3.17;;;1.92;;
49942;SDS011;36011;53.362;58.948;2023-11-19T06:05:26;1.10;;;1.00;;
49942;SDS011;36011;53.362;58.948;2023-11-19T06:11:37;2.38;;;1.48;;
49942;SDS011;36011;53.362;58.948;2023-11-19T06:14:39;2.45;;;2.10;;
49942;SDS011;36011;53.362;58.948;2023-11-19T06:17:43;1.80;;;1.30;;
49942;SDS011;36011;53.362;58.948;2023-11-19T06:20:45;2.78;;;1.42;;
49942;SDS011;36011;53.362;58.948;2023-11-19T06:23:49;1.08;;;1.00;;
49942;SDS011;36011;53.362;58.948;2023-11-19T06:26:52;1.13;;;1.05;;
49942;SDS011;36011;53.362;58.948;2023-11-19T06:29:53;2.35;;;1.60;;
49942;SDS011;36011;53.362;58.948;2023-11-19T06:32:56;1.30;;;1.20;;
49942;SDS011;36011;53.362;58.948;2023-11-19T06:36:01;3.03;;;1.25;;
49942;SDS011;36011;53.362;58.948;2023-11-19T06:39:08;0.98;;;0.77;;
49942;SDS011;36011;53.362;58.948;2023-11-19T06:42:14;2.55;;;1.08;;
49942;SDS011;36011;53.362;58.948;2023-11-19T06:45:15;1.85;;;0.90;;
49942;SDS011;36011;53.362;58.948;2023-11-19T06:51:21;1.05;;;0.80;;
49942;SDS011;36011;53.362;58.948;2023-11-19T06:54:25;1.92;;;1.13;;
49942;SDS011;36011;53.362;58.948;2023-11-19T06:57:26;2.20;;;1.10;;
49942;SDS011;36011;53.362;58.948;2023-11-19T07:00:30;1.30;;;1.20;;
49942;SDS011;36011;53.362;58.948;2023-11-19T07:03:34;1.30;;;0.90;;
49942;SDS011;36011;53.362;58.948;2023-11-19T07:06:38;1.77;;;0.98;;
49942;SDS011;36011;53.362;58.948;2023-11-19T07:09:46;1.58;;;0.77;;
49942;SDS011;36011;53.362;58.948;2023-11-19T07:12:54;1.08;;;0.80;;
49942;SDS011;36011;53.362;58.948;2023-11-19T07:15:58;3.97;;;1.70;;
49942;SDS011;36011;53.362;58.948;2023-11-19T07:19:02;2.13;;;1.55;;
49942;SDS011;36011;53.362;58.948;2023-11-19T07:22:12;2.10;;;1.17;;
49942;SDS011;36011;53.362;58.948;2023-11-19T07:25:16;1.00;;;0.90;;
49942;SDS011;36011;53.362;58.948;2023-11-19T07:28:21;1.30;;;1.20;;
49942;SDS011;36011;53.362;58.948;2023-11-19T07:31:28;1.35;;;0.82;;
49942;SDS011;36011;53.362;58.948;2023-11-19T07:34:38;2.35;;;0.73;;
49942;SDS011;36011;53.362;58.948;2023-11-19T07:37:44;2.88;;;1.63;;
49942;SDS011;36011;53.362;58.948;2023-11-19T07:40:50;0.80;;;0.73;;
49942;SDS011;36011;53.362;58.948;2023-11-19T07:43:52;0.90;;;0.77;;
49942;SDS011;36011;53.362;58.948;2023-11-19T07:46:57;0.88;;;0.70;;
49942;SDS011;36011;53.362;58.948;2023-11-19T07:49:59;1.30;;;0.90;;
49942;SDS011;36011;53.362;58.948;2023-11-19T07:53:01;0.60;;;0.60;;
49942;SDS011;36011;53.362;58.948;2023-11-19T07:56:05;1.17;;;0.65;;
49942;SDS011;36011;53.362;58.948;2023-11-19T07:59:10;0.60;;;0.60;;
49942;SDS011;36011;53.362;58.948;2023-11-19T08:02:14;0.55;;;0.50;;
49942;SDS011;36011;53.362;58.948;2023-11-19T08:05:18;1.50;;;1.10;;
49942;SDS011;36011;53.362;58.948;2023-11-19T08:08:22;2.08;;;1.20;;
49942;SDS011;36011;53.362;58.948;2023-11-19T08:11:29;1.58;;;0.80;;
49942;SDS011;36011;53.362;58.948;2023-11-19T08:14:35;2.25;;;0.95;;
49942;SDS011;36011;53.362;58.948;2023-11-19T08:17:39;2.00;;;1.20;;
49942;SDS011;36011;53.362;58.948;2023-11-19T08:20:48;0.98;;;0.60;;
49942;SDS011;36011;53.362;58.948;2023-11-19T08:23:55;2.72;;;0.47;;
49942;SDS011;36011;53.362;58.948;2023-11-19T08:27:00;1.38;;;0.80;;
49942;SDS011;36011;53.362;58.948;2023-11-19T08:30:06;2.20;;;0.90;;
49942;SDS011;36011;53.362;58.948;2023-11-19T08:33:10;5.03;;;1.20;;
49942;SDS011;36011;53.362;58.948;2023-11-19T08:36:16;1.48;;;0.82;;
49942;SDS011;36011;53.362;58.948;2023-11-19T08:39:21;5.55;;;1.73;;
49942;SDS011;36011;53.362;58.948;2023-11-19T08:42:22;4.72;;;1.30;;
49942;SDS011;36011;53.362;58.948;2023-11-19T08:45:29;3.42;;;1.42;;
49942;SDS011;36011;53.362;58.948;2023-11-19T08:48:32;2.47;;;0.75;;
49942;SDS011;36011;53.362;58.948;2023-11-19T08:51:33;1.45;;;0.73;;
49942;SDS011;36011;53.362;58.948;2023-11-19T08:54:35;2.15;;;0.95;;
49942;SDS011;36011;53.362;58.948;2023-11-19T08:57:37;4.75;;;1.52;;
49942;SDS011;36011;53.362;58.948;2023-11-19T09:00:41;4.32;;;1.75;;
49942;SDS011;36011;53.362;58.948;2023-11-19T09:03:45;3.25;;;0.80;;
49942;SDS011;36011;53.362;58.948;2023-11-19T09:06:52;1.90;;;1.67;;
49942;SDS011;36011;53.362;58.948;2023-11-19T09:09:58;3.20;;;2.00;;
49942;SDS011;36011;53.362;58.948;2023-11-19T09:13:02;3.88;;;2.28;;
49942;SDS011;36011;53.362;58.948;2023-11-19T09:16:05;5.72;;;2.47;;
49942;SDS011;36011;53.362;58.948;2023-11-19T09:19:07;2.15;;;1.50;;
49942;SDS011;36011;53.362;58.948;2023-11-19T09:22:20;2.45;;;1.60;;
49942;SDS011;36011;53.362;58.948;2023-11-19T09:25:26;2.55;;;1.40;;
49942;SDS011;36011;53.362;58.948;2023-11-19T09:28:27;1.88;;;1.23;;
49942;SDS011;36011;53.362;58.948;2023-11-19T09:31:29;2.38;;;0.90;;
49942;SDS011;36011;53.362;58.948;2023-11-19T09:37:39;0.80;;;0.60;;
49942;SDS011;36011;53.362;58.948;2023-11-19T09:40:43;1.08;;;0.95;;
49942;SDS011;36011;53.362;58.948;2023-11-19T09:43:44;1.45;;;0.90;;
49942;SDS011;36011;53.362;58.948;2023-11-19T09:46:46;1.50;;;1.05;;
49942;SDS011;36011;53.362;58.948;2023-11-19T09:49:53;1.75;;;0.57;;
49942;SDS011;36011;53.362;58.948;2023-11-19T09:52:57;1.17;;;0.80;;
49942;SDS011;36011;53.362;58.948;2023-11-19T09:56:08;1.15;;;0.80;;
49942;SDS011;36011;53.362;58.948;2023-11-19T09:59:12;1.00;;;0.87;;
49942;SDS011;36011;53.362;58.948;2023-11-19T10:02:18;2.08;;;1.02;;
49942;SDS011;36011;53.362;58.948;2023-11-19T10:05:24;1.85;;;1.08;;
49942;SDS011;36011;53.362;58.948;2023-11-19T10:08:31;0.93;;;0.63;;
49942;SDS011;36011;53.362;58.948;2023-11-19T10:11:35;1.67;;;0.98;;
49942;SDS011;36011;53.362;58.948;2023-11-19T10:14:40;1.92;;;0.90;;
49942;SDS011;36011;53.362;58.948;2023-11-19T10:17:46;1.60;;;1.20;;
49942;SDS011;36011;53.362;58.948;2023-11-19T10:20:50;1.45;;;1.25;;
49942;SDS011;36011;53.362;58.948;2023-11-19T10:23:56;1.55;;;1.20;;
49942;SDS011;36011;53.362;58.948;2023-11-19T10:27:03;2.88;;;1.10;;
49942;SDS011;36011;53.362;58.948;2023-11-19T10:30:11;3.55;;;1.63;;
49942;SDS011;36011;53.362;58.948;2023-11-19T10:33:13;5.78;;;1.35;;
49942;SDS011;36011;53.362;58.948;2023-11-19T10:36:22;2.72;;;1.05;;
49942;SDS011;36011;53.362;58.948;2023-11-19T10:39:52;2.65;;;1.25;;
49942;SDS011;36011;53.362;58.948;2023-11-19T10:43:02;4.60;;;2.25;;
49942;SDS011;36011;53.362;58.948;2023-11-19T10:46:10;3.97;;;1.83;;
49942;SDS011;36011;53.362;58.948;2023-11-19T10:49:13;3.30;;;1.42;;
49942;SDS011;36011;53.362;58.948;2023-11-19T10:52:17;6.70;;;1.05;;
49942;SDS011;36011;53.362;58.948;2023-11-19T10:55:26;2.75;;;1.00;;
49942;SDS011;36011;53.362;58.948;2023-11-19T10:58:39;6.97;;;2.72;;
49942;SDS011;36011;53.362;58.948;2023-11-19T11:01:46;7.85;;;3.58;;
49942;SDS011;36011;53.362;58.948;2023-11-19T11:04:56;4.90;;;2.40;;
49942;SDS011;36011;53.362;58.948;2023-11-19T11:08:06;4.55;;;2.17;;
49942;SDS011;36011;53.362;58.948;2023-11-19T11:11:10;3.22;;;1.15;;
49942;SDS011;36011;53.362;58.948;2023-11-19T11:14:21;9.80;;;4.60;;
49942;SDS011;36011;53.362;58.948;2023-11-19T11:17:25;3.65;;;2.42;;
49942;SDS011;36011;53.362;58.948;2023-11-19T11:20:33;6.60;;;2.28;;
49942;SDS011;36011;53.362;58.948;2023-11-19T11:37:21;7.35;;;3.03;;
49942;SDS011;36011;53.362;58.948;2023-11-19T11:40:29;4.47;;;1.80;;
49942;SDS011;36011;53.362;58.948;2023-11-19T11:43:43;6.50;;;3.05;;
49942;SDS011;36011;53.362;58.948;2023-11-19T11:46:55;4.35;;;2.72;;
49942;SDS011;36011;53.362;58.948;2023-11-19T11:50:05;6.22;;;2.60;;
49942;SDS011;36011;53.362;58.948;2023-11-19T11:53:22;6.82;;;2.67;;
49942;SDS011;36011;53.362;58.948;2023-11-19T11:56:32;7.97;;;3.47;;
49942;SDS011;36011;53.362;58.948;2023-11-19T11:59:43;5.47;;;2.87;;
49942;SDS011;36011;53.362;58.948;2023-11-19T12:02:46;3.45;;;2.17;;
49942;SDS011;36011;53.362;58.948;2023-11-19T12:05:52;3.58;;;2.15;;
49942;SDS011;36011;53.362;58.948;2023-11-19T12:09:02;3.65;;;2.03;;
49942;SDS011;36011;53.362;58.948;2023-11-19T12:15:17;4.93;;;2.03;;
49942;SDS011;36011;53.362;58.948;2023-11-19T12:18:20;3.30;;;1.23;;
49942;SDS011;36011;53.362;58.948;2023-11-19T12:21:29;9.50;;;2.42;;
49942;SDS011;36011;53.362;58.948;2023-11-19T12:24:34;7.82;;;3.22;;
49942;SDS011;36011;53.362;58.948;2023-11-19T12:27:39;10.85;;;4.10;;
49942;SDS011;36011;53.362;58.948;2023-11-19T12:30:45;8.93;;;3.25;;
49942;SDS011;36011;53.362;58.948;2023-11-19T12:36:54;13.18;;;4.00;;
49942;SDS011;36011;53.362;58.948;2023-11-19T12:39:58;6.68;;;3.25;;
49942;SDS011;36011;53.362;58.948;2023-11-19T12:43:00;11.57;;;4.38;;
49942;SDS011;36011;53.362;58.948;2023-11-19T12:49:21;3.42;;;2.17;;
49942;SDS011;36011;53.362;58.948;2023-11-19T12:52:30;3.10;;;1.80;;
49942;SDS011;36011;53.362;58.948;2023-11-19T12:55:34;2.35;;;1.70;;
49942;SDS011;36011;53.362;58.948;2023-11-19T12:58:41;9.48;;;2.30;;
49942;SDS011;36011;53.362;58.948;2023-11-19T13:01:53;7.30;;;3.70;;
49942;SDS011;36011;53.362;58.948;2023-11-19T13:04:59;6.65;;;2.65;;
49942;SDS011;36011;53.362;58.948;2023-11-19T13:08:42;11.10;;;2.67;;
49942;SDS011;36011;53.362;58.948;2023-11-19T13:11:49;4.78;;;3.03;;
49942;SDS011;36011;53.362;58.948;2023-11-19T13:14:52;5.13;;;2.30;;
49942;SDS011;36011;53.362;58.948;2023-11-19T13:17:54;5.20;;;2.50;;
49942;SDS011;36011;53.362;58.948;2023-11-19T13:20:59;4.68;;;2.72;;
49942;SDS011;36011;53.362;58.948;2023-11-19T13:24:06;7.97;;;3.08;;
49942;SDS011;36011;53.362;58.948;2023-11-19T13:27:13;6.82;;;2.65;;
49942;SDS011;36011;53.362;58.948;2023-11-19T13:30:15;5.53;;;2.28;;
49942;SDS011;36011;53.362;58.948;2023-11-19T13:33:19;9.52;;;2.58;;
49942;SDS011;36011;53.362;58.948;2023-11-19T13:36:24;9.40;;;2.80;;
49942;SDS011;36011;53.362;58.948;2023-11-19T13:39:34;7.15;;;3.22;;
49942;SDS011;36011;53.362;58.948;2023-11-19T13:42:44;8.45;;;3.72;;
49942;SDS011;36011;53.362;58.948;2023-11-19T13:48:49;9.35;;;3.60;;
49942;SDS011;36011;53.362;58.948;2023-11-19T13:51:51;7.32;;;3.17;;
49942;SDS011;36011;53.362;58.948;2023-11-19T13:54:58;6.82;;;2.67;;
49942;SDS011;36011;53.362;58.948;2023-11-19T13:58:07;6.68;;;3.10;;
49942;SDS011;36011;53.362;58.948;2023-11-19T14:01:11;13.02;;;5.25;;
49942;SDS011;36011;53.362;58.948;2023-11-19T14:04:17;4.95;;;2.33;;
49942;SDS011;36011;53.362;58.948;2023-11-19T14:07:23;3.40;;;2.28;;
49942;SDS011;36011;53.362;58.948;2023-11-19T14:10:24;4.43;;;2.50;;
49942;SDS011;36011;53.362;58.948;2023-11-19T14:13:28;10.63;;;4.22;;
49942;SDS011;36011;53.362;58.948;2023-11-19T14:16:30;6.97;;;3.25;;
49942;SDS011;36011;53.362;58.948;2023-11-19T14:19:35;4.80;;;2.90;;
49942;SDS011;36011;53.362;58.948;2023-11-19T14:22:43;8.75;;;4.18;;
49942;SDS011;36011;53.362;58.948;2023-11-19T14:25:47;6.18;;;3.78;;
49942;SDS011;36011;53.362;58.948;2023-11-19T14:28:51;8.18;;;3.75;;
49942;SDS011;36011;53.362;58.948;2023-11-19T14:31:56;8.20;;;3.72;;
49942;SDS011;36011;53.362;58.948;2023-11-19T14:34:58;7.82;;;3.45;;
49942;SDS011;36011;53.362;58.948;2023-11-19T14:37:59;9.25;;;4.18;;
49942;SDS011;36011;53.362;58.948;2023-11-19T14:44:08;8.57;;;4.05;;
49942;SDS011;36011;53.362;58.948;2023-11-19T14:47:14;8.90;;;4.05;;
49942;SDS011;36011;53.362;58.948;2023-11-19T14:50:16;8.80;;;3.72;;
49942;SDS011;36011;53.362;58.948;2023-11-19T14:53:18;7.93;;;4.20;;
49942;SDS011;36011;53.362;58.948;2023-11-19T14:56:21;28.80;;;13.55;;
49942;SDS011;36011;53.362;58.948;2023-11-19T14:59:25;9.40;;;5.00;;
49942;SDS011;36011;53.362;58.948;2023-11-19T15:02:29;9.50;;;4.60;;
49942;SDS011;36011;53.362;58.948;2023-11-19T15:05:33;12.10;;;4.90;;
49942;SDS011;36011;53.362;58.948;2023-11-19T15:08:37;9.90;;;3.95;;
49942;SDS011;36011;53.362;58.948;2023-11-19T15:11:43;5.90;;;3.03;;
49942;SDS011;36011;53.362;58.948;2023-11-19T15:14:50;6.07;;;3.08;;
49942;SDS011;36011;53.362;58.948;2023-11-19T15:17:56;6.85;;;4.25;;
49942;SDS011;36011;53.362;58.948;2023-11-19T15:21:02;5.22;;;3.00;;
49942;SDS011;36011;53.362;58.948;2023-11-19T15:24:03;5.22;;;3.35;;
49942;SDS011;36011;53.362;58.948;2023-11-19T15:27:11;12.02;;;6.22;;
49942;SDS011;36011;53.362;58.948;2023-11-19T15:30:13;8.60;;;4.55;;
49942;SDS011;36011;53.362;58.948;2023-11-19T15:33:18;9.55;;;5.50;;
49942;SDS011;36011;53.362;58.948;2023-11-19T15:36:20;8.40;;;2.88;;
49942;SDS011;36011;53.362;58.948;2023-11-19T15:39:27;13.48;;;6.28;;
49942;SDS011;36011;53.362;58.948;2023-11-19T15:42:34;10.23;;;5.75;;
49942;SDS011;36011;53.362;58.948;2023-11-19T15:45:38;13.00;;;6.47;;
49942;SDS011;36011;53.362;58.948;2023-11-19T15:48:40;8.63;;;3.90;;
49942;SDS011;36011;53.362;58.948;2023-11-19T15:51:42;7.05;;;3.80;;
49942;SDS011;36011;53.362;58.948;2023-11-19T15:54:48;6.32;;;2.70;;
49942;SDS011;36011;53.362;58.948;2023-11-19T15:57:53;5.85;;;3.03;;
49942;SDS011;36011;53.362;58.948;2023-11-19T16:00:54;7.93;;;3.88;;
49942;SDS011;36011;53.362;58.948;2023-11-19T16:04:01;4.10;;;2.90;;
49942;SDS011;36011;53.362;58.948;2023-11-19T16:07:02;5.05;;;3.13;;
49942;SDS011;36011;53.362;58.948;2023-11-19T16:13:13;7.18;;;3.40;;
49942;SDS011;36011;53.362;58.948;2023-11-19T16:16:15;9.45;;;4.78;;
49942;SDS011;36011;53.362;58.948;2023-11-19T16:19:20;5.55;;;3.08;;
49942;SDS011;36011;53.362;58.948;2023-11-19T16:22:25;8.57;;;4.15;;
49942;SDS011;36011;53.362;58.948;2023-11-19T16:25:32;8.95;;;3.38;;
49942;SDS011;36011;53.362;58.948;2023-11-19T16:28:38;4.20;;;2.30;;
49942;SDS011;36011;53.362;58.948;2023-11-19T16:31:45;9.77;;;3.92;;
49942;SDS011;36011;53.362;58.948;2023-11-19T16:34:49;3.75;;;2.83;;
49942;SDS011;36011;53.362;58.948;2023-11-19T16:37:53;9.85;;;3.38;;
49942;SDS011;36011;53.362;58.948;2023-11-19T16:40:57;6.97;;;2.72;;
49942;SDS011;36011;53.362;58.948;2023-11-19T16:43:59;8.73;;;3.33;;
49942;SDS011;36011;53.362;58.948;2023-11-19T16:47:03;10.13;;;3.63;;
49942;SDS011;36011;53.362;58.948;2023-11-19T16:50:05;5.07;;;3.15;;
49942;SDS011;36011;53.362;58.948;2023-11-19T16:53:10;6.53;;;3.05;;
49942;SDS011;36011;53.362;58.948;2023-11-19T16:56:12;6.63;;;3.63;;
49942;SDS011;36011;53.362;58.948;2023-11-19T16:59:14;8.40;;;4.07;;
49942;SDS011;36011;53.362;58.948;2023-11-19T17:02:19;5.00;;;3.10;;
49942;SDS011;36011;53.362;58.948;2023-11-19T17:05:26;5.60;;;3.65;;
49942;SDS011;36011;53.362;58.948;2023-11-19T17:08:34;9.02;;;4.22;;
49942;SDS011;36011;53.362;58.948;2023-11-19T17:11:43;5.13;;;2.80;;
49942;SDS011;36011;53.362;58.948;2023-11-19T17:14:49;8.73;;;4.07;;
49942;SDS011;36011;53.362;58.948;2023-11-19T17:17:59;6.38;;;3.00;;
49942;SDS011;36011;53.362;58.948;2023-11-19T17:21:06;4.45;;;3.28;;
49942;SDS011;36011;53.362;58.948;2023-11-19T17:24:07;8.73;;;3.72;;
49942;SDS011;36011;53.362;58.948;2023-11-19T17:27:12;7.82;;;3.30;;
49942;SDS011;36011;53.362;58.948;2023-11-19T17:30:17;5.65;;;3.30;;
49942;SDS011;36011;53.362;58.948;2023-11-19T17:33:18;6.80;;;3.92;;
49942;SDS011;36011;53.362;58.948;2023-11-19T17:36:23;4.75;;;2.85;;
49942;SDS011;36011;53.362;58.948;2023-11-19T17:39:28;7.95;;;4.38;;
49942;SDS011;36011;53.362;58.948;2023-11-19T17:42:30;6.93;;;3.33;;
49942;SDS011;36011;53.362;58.948;2023-11-19T17:45:37;5.40;;;3.25;;
49942;SDS011;36011;53.362;58.948;2023-11-19T17:48:43;5.13;;;3.08;;
49942;SDS011;36011;53.362;58.948;2023-11-19T17:51:52;6.25;;;3.65;;
49942;SDS011;36011;53.362;58.948;2023-11-19T17:54:53;6.07;;;3.03;;
49942;SDS011;36011;53.362;58.948;2023-11-19T17:57:58;4.75;;;3.20;;
49942;SDS011;36011;53.362;58.948;2023-11-19T18:01:04;8.65;;;3.47;;
49942;SDS011;36011;53.362;58.948;2023-11-19T18:04:06;2.92;;;2.05;;
49942;SDS011;36011;53.362;58.948;2023-11-19T18:07:17;7.85;;;3.80;;
49942;SDS011;36011;53.362;58.948;2023-11-19T18:10:26;9.15;;;3.78;;
49942;SDS011;36011;53.362;58.948;2023-11-19T18:13:31;8.15;;;3.17;;
49942;SDS011;36011;53.362;58.948;2023-11-19T18:16:41;7.00;;;3.05;;
49942;SDS011;36011;53.362;58.948;2023-11-19T18:19:58;6.18;;;2.75;;
49942;SDS011;36011;53.362;58.948;2023-11-19T18:23:07;5.05;;;3.47;;
49942;SDS011;36011;53.362;58.948;2023-11-19T18:26:12;9.07;;;4.30;;
49942;SDS011;36011;53.362;58.948;2023-11-19T18:29:16;11.88;;;4.50;;
49942;SDS011;36011;53.362;58.948;2023-11-19T18:35:21;7.18;;;3.88;;
49942;SDS011;36011;53.362;58.948;2023-11-19T18:38:26;8.45;;;3.67;;
49942;SDS011;36011;53.362;58.948;2023-11-19T18:41:32;6.50;;;3.47;;
49942;SDS011;36011;53.362;58.948;2023-11-19T18:44:37;6.78;;;3.08;;
49942;SDS011;36011;53.362;58.948;2023-11-19T18:47:41;7.75;;;2.83;;
49942;SDS011;36011;53.362;58.948;2023-11-19T18:50:46;4.03;;;2.55;;
49942;SDS011;36011;53.362;58.948;2023-11-19T18:53:48;4.25;;;2.92;;
49942;SDS011;36011;53.362;58.948;2023-11-19T18:56:53;7.78;;;3.58;;
49942;SDS011;36011;53.362;58.948;2023-11-19T18:59:58;4.90;;;2.33;;
49942;SDS011;36011;53.362;58.948;2023-11-19T19:03:03;5.97;;;3.00;;
49942;SDS011;36011;53.362;58.948;2023-11-19T19:06:05;6.53;;;2.95;;
49942;SDS011;36011;53.362;58.948;2023-11-19T19:09:08;5.30;;;2.72;;